Time;durP1;ratioP1;P1;durP2;ratioP2;P2;SDS_P1;SDS_P2;PMS_P1;PMS_P2;Temp;Humidity;BMP_temperature;BMP_pressure;BME280_temperature;BME280_humidity;BME280_pressure;Samples;Min_cycle;Max_cycle;Signal;HPM_P1;HPM_P2
2021/08/02 00:00:19;;;;;;;4.30;3.90;;;;;;;20.26;61.69;100176.47;5007703;28;20038;-47
2021/08/02 00:03:02;;;;;;;4.03;3.72;;;;;;;20.24;61.84;100181.06;4989450;28;20120;-46
2021/08/02 00:05:34;;;;;;;4.00;3.70;;;;;;;20.27;61.85;100182.69;5013264;28;20027;-46
2021/08/02 00:08:01;;;;;;;3.90;3.58;;;;;;;20.24;61.76;100178.38;5011556;28;20459;-46
2021/08/02 00:10:34;;;;;;;4.25;3.95;;;;;;;20.24;61.88;100189.09;5017080;28;20074;-46
2021/08/02 00:13:01;;;;;;;4.30;4.00;;;;;;;20.23;61.96;100182.00;5010680;28;20021;-46
2021/08/02 00:15:28;;;;;;;4.72;3.95;;;;;;;20.22;61.99;100175.78;5014753;28;20432;-46
2021/08/02 00:17:53;;;;;;;4.68;4.13;;;;;;;20.22;61.94;100175.78;5012408;28;20063;-45
2021/08/02 00:20:28;;;;;;;4.32;3.75;;;;;;;20.22;61.94;100178.47;5014784;28;20600;-46
2021/08/02 00:22:54;;;;;;;4.32;3.92;;;;;;;20.18;62.06;100173.38;5018131;28;20058;-45
2021/08/02 00:25:19;;;;;;;3.55;3.30;;;;;;;20.21;62.01;100183.91;5012540;28;20100;-46
2021/08/02 00:27:50;;;;;;;3.78;3.47;;;;;;;20.19;62.15;100181.31;5012117;28;20133;-46
2021/08/02 00:30:25;;;;;;;4.22;3.80;;;;;;;20.20;62.14;100187.50;5012991;28;20026;-46
2021/08/02 00:32:51;;;;;;;4.32;3.90;;;;;;;20.17;62.16;100185.03;5016217;28;20061;-46
2021/08/02 00:35:17;;;;;;;4.22;3.83;;;;;;;20.19;62.21;100192.03;5019362;28;20032;-46
2021/08/02 00:38:04;;;;;;;3.97;3.67;;;;;;;20.19;62.22;100200.06;5013606;28;20025;-45
2021/08/02 00:40:48;;;;;;;3.75;3.45;;;;;;;20.17;62.17;100188.56;5008501;28;20378;-46
2021/08/02 00:43:46;;;;;;;4.72;4.32;;;;;;;20.18;62.11;100200.16;5011732;28;20030;-46
2021/08/02 00:46:15;;;;;;;3.80;3.50;;;;;;;20.17;62.18;100198.44;5014548;28;20026;-45
2021/08/02 00:48:52;;;;;;;4.10;3.70;;;;;;;20.17;62.21;100195.75;5027037;28;20053;-45
2021/08/02 00:51:18;;;;;;;4.43;3.70;;;;;;;20.15;62.26;100187.81;5012014;28;20025;-46
2021/08/02 00:53:47;;;;;;;4.05;3.65;;;;;;;20.15;62.22;100184.25;5014502;28;20022;-46
2021/08/02 00:56:13;;;;;;;3.50;3.20;;;;;;;20.13;62.25;100189.69;5011350;28;20022;-46
2021/08/02 00:58:40;;;;;;;3.28;2.97;;;;;;;20.14;62.28;100196.75;5009034;28;20100;-46
2021/08/02 01:01:06;;;;;;;4.32;3.75;;;;;;;20.13;62.26;100192.38;5012780;28;20026;-45
2021/08/02 01:03:32;;;;;;;3.67;3.38;;;;;;;20.13;62.12;100193.25;5015152;28;20022;-46
2021/08/02 01:05:57;;;;;;;3.92;3.63;;;;;;;20.13;62.30;100195.03;5016074;28;20595;-46
2021/08/02 01:08:27;;;;;;;3.85;3.53;;;;;;;20.12;62.29;100196.88;5011198;28;20029;-45
2021/08/02 01:11:00;;;;;;;3.47;3.20;;;;;;;20.12;62.37;100194.19;5011487;28;20521;-46
2021/08/02 01:13:26;;;;;;;4.05;3.75;;;;;;;20.10;62.43;100193.41;5005253;28;20038;-46
2021/08/02 01:15:54;;;;;;;4.65;3.40;;;;;;;20.08;62.19;100197.97;5012509;28;20160;-45
2021/08/02 01:18:22;;;;;;;3.65;3.35;;;;;;;20.11;62.35;100207.66;5013373;28;20025;-45
2021/08/02 01:20:50;;;;;;;3.72;3.42;;;;;;;20.10;62.43;100209.47;5012651;28;20406;-45
2021/08/02 01:23:17;;;;;;;3.35;3.15;;;;;;;20.09;62.32;100207.75;5011288;28;20026;-46
2021/08/02 01:25:42;;;;;;;3.10;2.80;;;;;;;20.09;62.34;100214.91;5008414;28;20114;-46
2021/08/02 01:28:13;;;;;;;3.37;3.07;;;;;;;20.09;62.37;100214.91;5015706;28;20189;-46
2021/08/02 01:30:42;;;;;;;3.38;3.08;;;;;;;20.08;62.43;100214.03;5012348;28;20105;-45
2021/08/02 01:33:07;;;;;;;2.67;2.47;;;;;;;20.07;62.42;100225.69;5012281;28;20026;-46
2021/08/02 01:35:34;;;;;;;3.25;3.05;;;;;;;20.06;62.41;100223.97;5011239;28;20099;-46
2021/08/02 01:38:00;;;;;;;3.22;2.88;;;;;;;20.07;62.44;100224.84;5010822;28;20113;-45
2021/08/02 01:40:27;;;;;;;3.05;2.80;;;;;;;20.07;62.47;100225.69;5005324;28;20029;-46
2021/08/02 01:42:52;;;;;;;3.85;3.10;;;;;;;20.05;62.46;100227.63;5010172;28;20036;-45
2021/08/02 01:45:17;;;;;;;3.40;3.10;;;;;;;20.04;62.43;100223.19;5011483;28;20033;-46
2021/08/02 01:48:01;;;;;;;3.58;3.28;;;;;;;20.05;62.41;100226.75;5013980;28;20657;-46
2021/08/02 01:51:03;;;;;;;3.50;3.20;;;;;;;20.03;62.46;100229.50;5010419;28;20557;-45
2021/08/02 01:53:36;;;;;;;3.53;2.80;;;;;;;20.03;62.48;100242.00;5027045;28;20033;-45
2021/08/02 01:56:07;;;;;;;3.38;3.08;;;;;;;20.02;62.52;100238.50;5007347;28;20030;-45
2021/08/02 01:58:39;;;;;;;2.90;2.70;;;;;;;20.02;62.49;100243.84;5005663;28;20535;-45
2021/08/02 02:01:05;;;;;;;2.90;2.70;;;;;;;20.02;62.30;100243.84;5012565;28;20500;-46
2021/08/02 02:03:39;;;;;;;3.25;2.95;;;;;;;20.01;62.52;100236.78;5003974;28;20030;-46
2021/08/02 02:06:12;;;;;;;3.15;2.92;;;;;;;19.99;62.52;100238.63;5008940;28;20547;-48
2021/08/02 02:08:49;;;;;;;3.60;3.28;;;;;;;19.99;62.45;100241.31;5010807;28;20030;-48
2021/08/02 02:11:15;;;;;;;3.50;3.20;;;;;;;19.99;62.48;100243.97;5007604;28;20033;-47
2021/08/02 02:13:42;;;;;;;3.05;2.75;;;;;;;19.98;62.49;100243.09;5010093;28;20493;-49
2021/08/02 02:16:11;;;;;;;3.33;3.13;;;;;;;19.98;62.64;100248.44;5005860;28;20557;-48
2021/08/02 02:18:46;;;;;;;4.10;2.88;;;;;;;19.97;62.54;100249.41;5003153;28;20493;-48
2021/08/02 02:21:18;;;;;;;3.10;2.80;;;;;;;19.97;62.45;100251.22;5008405;28;20096;-48
2021/08/02 02:23:44;;;;;;;3.78;3.00;;;;;;;19.98;62.50;100250.28;5009988;28;20021;-48
2021/08/02 02:26:11;;;;;;;2.85;2.65;;;;;;;19.96;62.34;100247.69;5010221;28;20062;-48
2021/08/02 02:28:37;;;;;;;3.28;2.97;;;;;;;19.96;62.55;100245.00;5004707;28;20041;-48
2021/08/02 02:31:06;;;;;;;3.45;3.15;;;;;;;19.95;62.52;100247.78;5007112;28;20022;-48
2021/08/02 02:33:32;;;;;;;3.45;3.20;;;;;;;19.94;62.50;100254.94;5014778;28;20022;-48
2021/08/02 02:35:58;;;;;;;3.30;3.00;;;;;;;19.94;62.39;100252.25;5007712;28;20044;-48
2021/08/02 02:38:24;;;;;;;3.42;3.13;;;;;;;19.94;62.52;100252.25;5012782;28;20045;-48
2021/08/02 02:40:49;;;;;;;3.40;3.10;;;;;;;19.95;62.58;100263.84;5010086;28;20711;-48
2021/08/02 02:43:15;;;;;;;3.22;3.03;;;;;;;19.93;62.52;100261.22;5013383;28;20707;-49
2021/08/02 02:45:42;;;;;;;3.03;2.83;;;;;;;19.93;62.73;100268.38;5011282;28;20028;-48
2021/08/02 02:48:08;;;;;;;3.25;3.05;;;;;;;19.92;62.60;100269.34;5008172;28;20045;-48
2021/08/02 02:50:37;;;;;;;3.17;2.97;;;;;;;19.90;62.48;100269.44;5013646;28;20018;-48
2021/08/02 02:53:03;;;;;;;3.47;3.17;;;;;;;19.92;62.45;100274.69;5011658;28;20029;-47
2021/08/02 02:55:33;;;;;;;3.25;2.95;;;;;;;19.90;62.40;100274.78;5011929;28;20021;-48
2021/08/02 02:58:02;;;;;;;3.00;2.80;;;;;;;19.86;62.43;100268.75;5010310;28;20030;-48
2021/08/02 03:00:27;;;;;;;3.60;3.30;;;;;;;19.88;62.54;100274.84;5011910;28;20034;-48
2021/08/02 03:02:55;;;;;;;3.28;3.08;;;;;;;19.87;62.40;100275.81;5006594;28;20021;-48
2021/08/02 03:05:22;;;;;;;4.43;3.55;;;;;;;19.88;62.41;100290.91;5017438;28;20022;-48
2021/08/02 03:07:50;;;;;;;3.75;3.35;;;;;;;19.87;62.31;100281.16;5012929;28;20036;-48
2021/08/02 03:10:18;;;;;;;3.53;3.22;;;;;;;19.87;62.30;100289.19;5008070;28;20055;-48
2021/08/02 03:12:43;;;;;;;3.65;3.35;;;;;;;19.87;62.41;100293.66;5009527;28;20075;-47
2021/08/02 03:15:09;;;;;;;3.78;3.45;;;;;;;19.84;62.52;100289.34;5011189;28;20026;-47
2021/08/02 03:17:34;;;;;;;3.30;3.00;;;;;;;19.87;62.51;100299.91;5013588;28;20083;-48
2021/08/02 03:19:59;;;;;;;3.40;3.20;;;;;;;19.86;62.55;100300.84;5010837;28;20544;-48
2021/08/02 03:22:33;;;;;;;3.50;3.28;;;;;;;19.86;62.64;100302.66;5013421;28;20444;-47
2021/08/02 03:25:09;;;;;;;3.83;3.50;;;;;;;19.84;62.58;100308.09;5012595;28;20076;-48
2021/08/02 03:27:40;;;;;;;3.55;3.28;;;;;;;19.84;62.64;100307.25;5030373;28;20021;-47
2021/08/02 03:30:08;;;;;;;3.15;2.85;;;;;;;19.83;62.54;100311.72;5015511;28;20569;-48
2021/08/02 03:32:36;;;;;;;3.60;3.30;;;;;;;19.80;62.59;100303.84;5014271;28;20060;-48
2021/08/02 03:35:04;;;;;;;3.65;3.33;;;;;;;19.82;62.57;100312.69;5013692;28;20026;-48
2021/08/02 03:37:30;;;;;;;3.72;3.42;;;;;;;19.81;62.67;100316.28;5015771;28;20091;-48
2021/08/02 03:39:56;;;;;;;3.42;3.13;;;;;;;19.82;62.60;100320.69;5027905;28;20017;-48
2021/08/02 03:42:23;;;;;;;3.20;3.00;;;;;;;19.81;62.47;100326.13;5026694;28;20028;-48
2021/08/02 03:44:49;;;;;;;3.58;3.28;;;;;;;19.80;62.51;100319.91;5024278;28;20042;-49
2021/08/02 03:47:15;;;;;;;3.28;2.97;;;;;;;19.80;62.40;100325.25;5015130;28;20110;-48
2021/08/02 03:49:41;;;;;;;3.15;2.88;;;;;;;19.78;62.67;100324.50;5020240;28;20543;-48
2021/08/02 03:52:06;;;;;;;3.40;3.10;;;;;;;19.79;62.53;100334.25;5018361;28;20038;-47
2021/08/02 03:54:32;;;;;;;4.30;3.90;;;;;;;19.80;62.36;100329.72;5022971;28;20030;-49
2021/08/02 03:56:59;;;;;;;5.53;3.70;;;;;;;19.72;62.63;100331.03;5019084;28;20037;-48
2021/08/02 03:59:25;;;;;;;3.50;3.20;;;;;;;19.77;62.66;100337.94;5024177;28;20028;-48
2021/08/02 04:01:51;;;;;;;3.50;3.20;;;;;;;19.77;62.55;100330.75;5015831;28;20017;-49
2021/08/02 04:04:16;;;;;;;3.38;3.08;;;;;;;19.75;62.53;100344.22;5014168;28;20721;-49
2021/08/02 04:06:41;;;;;;;4.00;3.60;;;;;;;19.75;62.54;100346.91;5017059;28;20079;-48
2021/08/02 04:09:09;;;;;;;4.18;3.28;;;;;;;19.75;62.47;100348.72;5015956;28;20026;-48
2021/08/02 04:11:34;;;;;;;3.80;3.50;;;;;;;19.74;62.55;100357.72;5016538;28;20014;-49
2021/08/02 04:14:00;;;;;;;3.83;3.45;;;;;;;19.70;62.48;100354.31;5017097;28;20029;-49
2021/08/02 04:16:25;;;;;;;3.85;3.47;;;;;;;19.74;62.51;100360.38;5018904;28;20057;-48
2021/08/02 04:18:50;;;;;;;3.78;3.47;;;;;;;19.73;62.51;100361.31;5019059;28;20022;-48
2021/08/02 04:21:16;;;;;;;3.80;3.50;;;;;;;19.72;62.48;100371.16;5018144;28;20026;-46
2021/08/02 04:23:41;;;;;;;3.42;3.22;;;;;;;19.71;62.76;100373.91;5014916;28;20423;-48
2021/08/02 04:26:09;;;;;;;3.63;3.33;;;;;;;19.70;62.96;100382.88;5019652;28;20029;-48
2021/08/02 04:28:35;;;;;;;4.32;4.03;;;;;;;19.69;63.16;100382.03;5020950;28;20022;-49
2021/08/02 04:31:00;;;;;;;3.97;3.58;;;;;;;19.68;62.73;100387.44;5015609;28;20030;-46
2021/08/02 04:33:26;;;;;;;4.53;3.33;;;;;;;19.68;62.73;100385.66;5017572;28;20045;-49
2021/08/02 04:35:51;;;;;;;3.80;3.30;;;;;;;19.68;62.76;100391.00;5016779;28;20108;-49
2021/08/02 04:38:16;;;;;;;3.28;3.08;;;;;;;19.68;62.80;100395.47;5018126;28;20049;-48
2021/08/02 04:40:41;;;;;;;3.67;3.38;;;;;;;19.68;62.60;100392.78;5015736;28;20030;-49
2021/08/02 04:43:07;;;;;;;4.00;3.70;;;;;;;19.67;62.75;100389.25;5024363;28;20026;-48
2021/08/02 04:45:32;;;;;;;4.20;3.83;;;;;;;19.67;62.65;100388.41;5015411;28;20401;-49
2021/08/02 04:47:57;;;;;;;3.72;3.42;;;;;;;19.66;62.66;100397.34;5014710;28;20915;-48
2021/08/02 04:50:23;;;;;;;3.88;3.58;;;;;;;19.66;62.72;100392.00;5018621;28;20505;-48
2021/08/02 04:52:50;;;;;;;4.28;3.53;;;;;;;19.65;62.66;100388.47;5019226;28;20504;-49
2021/08/02 04:55:16;;;;;;;3.95;3.53;;;;;;;19.60;62.58;100383.34;5016207;28;20026;-47
2021/08/02 04:57:41;;;;;;;4.13;3.72;;;;;;;19.65;62.51;100390.28;5016451;28;20033;-48
2021/08/02 05:00:07;;;;;;;3.63;3.42;;;;;;;19.64;62.68;100389.41;5017742;28;20029;-49
2021/08/02 05:02:32;;;;;;;3.75;3.42;;;;;;;19.64;62.50;100385.88;5015995;28;20041;-48
2021/08/02 05:04:58;;;;;;;4.05;3.40;;;;;;;19.63;62.53;100387.69;5022659;28;20040;-47
2021/08/02 05:07:23;;;;;;;3.53;3.22;;;;;;;19.61;62.78;100397.59;5015700;28;20045;-48
2021/08/02 05:09:48;;;;;;;3.58;3.28;;;;;;;19.60;62.70;100390.50;5010007;28;20084;-49
2021/08/02 05:12:14;;;;;;;4.38;3.33;;;;;;;19.61;62.59;100400.28;5022574;28;20109;-49
2021/08/02 05:14:39;;;;;;;3.50;3.20;;;;;;;19.60;62.70;100394.06;5024892;28;20474;-45
2021/08/02 05:17:04;;;;;;;4.22;3.47;;;;;;;19.60;62.71;100393.19;5012881;28;20037;-49
2021/08/02 05:19:30;;;;;;;4.28;3.63;;;;;;;19.58;62.60;100397.75;5019892;28;20030;-49
2021/08/02 05:21:55;;;;;;;3.35;3.05;;;;;;;19.59;62.72;100404.84;5018883;28;20018;-48
2021/08/02 05:24:20;;;;;;;4.00;3.70;;;;;;;19.58;62.64;100406.63;5021942;28;20028;-48
2021/08/02 05:26:45;;;;;;;4.03;3.63;;;;;;;19.58;62.65;100403.09;5020004;28;20022;-49
2021/08/02 05:29:11;;;;;;;3.50;3.20;;;;;;;19.55;62.74;100401.47;5018453;28;20022;-48
2021/08/02 05:31:36;;;;;;;3.65;3.30;;;;;;;19.57;62.65;100412.94;5016371;28;20489;-49
2021/08/02 05:34:01;;;;;;;3.08;2.88;;;;;;;19.56;62.86;100410.34;5024365;28;20050;-48
2021/08/02 05:36:27;;;;;;;3.45;3.15;;;;;;;19.56;62.67;100421.03;5016863;28;20048;-48
2021/08/02 05:38:52;;;;;;;4.68;3.20;;;;;;;19.54;62.66;100415.75;5013855;28;20389;-48
2021/08/02 05:41:17;;;;;;;3.35;3.05;;;;;;;19.55;62.70;100425.53;5034280;28;20029;-49
2021/08/02 05:43:42;;;;;;;3.40;3.10;;;;;;;19.54;62.83;100422.94;5020879;28;20022;-47
2021/08/02 05:46:08;;;;;;;2.70;2.50;;;;;;;19.54;62.70;100421.09;5018460;28;20104;-48
2021/08/02 05:48:33;;;;;;;4.10;2.90;;;;;;;19.54;62.96;100437.16;5015938;28;20473;-48
2021/08/02 05:50:59;;;;;;;3.20;2.90;;;;;;;19.51;62.76;100417.75;5018044;28;20061;-47
2021/08/02 05:53:24;;;;;;;3.50;3.20;;;;;;;19.53;62.82;100424.72;5020264;28;20022;-48
2021/08/02 05:55:49;;;;;;;4.65;2.90;;;;;;;19.51;62.80;100420.41;5017022;28;20017;-48
2021/08/02 05:58:16;;;;;;;3.03;2.72;;;;;;;19.51;62.93;100421.28;5017985;28;20029;-48
2021/08/02 06:00:41;;;;;;;3.45;3.15;;;;;;;19.52;62.88;100433.72;5021557;28;20478;-49
2021/08/02 06:03:06;;;;;;;3.45;3.03;;;;;;;19.52;62.83;100432.84;5020956;28;20079;-49
2021/08/02 06:05:32;;;;;;;4.45;2.70;;;;;;;19.50;63.02;100432.91;5014097;28;20040;-48
2021/08/02 06:07:57;;;;;;;3.33;3.03;;;;;;;19.48;62.84;100426.78;5016483;28;20030;-49
2021/08/02 06:10:22;;;;;;;3.40;2.80;;;;;;;19.49;62.96;100424.03;5016911;28;20033;-49
2021/08/02 06:13:00;;;;;;;2.78;2.58;;;;;;;19.48;63.01;100422.28;5015772;28;20489;-49
2021/08/02 06:15:25;;;;;;;3.08;2.78;;;;;;;19.48;62.77;100419.59;5019083;28;20017;-48
2021/08/02 06:17:50;;;;;;;3.30;3.03;;;;;;;19.42;62.98;100411.03;5015510;28;20452;-48
2021/08/02 06:20:16;;;;;;;3.83;2.92;;;;;;;19.48;62.95;100430.31;5013103;28;20048;-48
2021/08/02 06:22:41;;;;;;;3.60;2.92;;;;;;;19.48;62.99;100426.78;5023820;28;20025;-49
2021/08/02 06:25:07;;;;;;;2.55;2.35;;;;;;;19.48;62.83;100426.78;5017435;28;20025;-48
2021/08/02 06:27:32;;;;;;;2.90;2.58;;;;;;;19.44;62.90;100433.25;5011689;28;20037;-47
2021/08/02 06:29:58;;;;;;;2.80;2.60;;;;;;;19.49;63.02;100436.53;5024158;28;20025;-47
2021/08/02 06:32:24;;;;;;;2.80;2.60;;;;;;;19.47;62.86;100444.63;5016594;28;20033;-48
2021/08/02 06:34:49;;;;;;;3.53;3.22;;;;;;;19.48;62.94;100445.50;5018467;28;20014;-49
2021/08/02 06:37:15;;;;;;;3.30;2.60;;;;;;;19.47;62.86;100430.38;5020886;28;20029;-49
2021/08/02 06:39:41;;;;;;;2.50;2.30;;;;;;;19.46;62.87;100436.69;5019940;28;20014;-49
2021/08/02 06:42:06;;;;;;;3.58;2.50;;;;;;;19.45;62.86;100438.50;5017156;28;20017;-49
2021/08/02 06:44:31;;;;;;;3.90;2.75;;;;;;;19.47;63.09;100441.06;5015593;28;20034;-48
2021/08/02 06:46:57;;;;;;;4.97;2.47;;;;;;;19.46;62.99;100445.59;5016036;28;20021;-48
2021/08/02 06:49:22;;;;;;;2.25;2.15;;;;;;;19.44;63.30;100442.09;5012600;28;20018;-49
2021/08/02 06:51:47;;;;;;;3.97;2.63;;;;;;;19.45;63.09;100441.19;5013550;28;20409;-48
2021/08/02 06:54:13;;;;;;;2.60;2.40;;;;;;;19.44;63.35;100451.97;5014778;28;20014;-48
2021/08/02 06:56:38;;;;;;;2.95;2.53;;;;;;;19.43;63.38;100447.53;5020067;28;20061;-49
2021/08/02 06:59:03;;;;;;;3.00;2.70;;;;;;;19.42;63.28;100445.81;5025366;28;20079;-48
2021/08/02 07:01:29;;;;;;;2.40;2.20;;;;;;;19.43;63.09;100450.19;5034996;28;20382;-48
2021/08/02 07:03:54;;;;;;;2.65;2.30;;;;;;;19.42;63.15;100449.34;5020332;28;20022;-48
2021/08/02 07:06:19;;;;;;;2.70;2.50;;;;;;;19.40;63.23;100451.22;5013696;28;20481;-48
2021/08/02 07:08:45;;;;;;;3.28;2.13;;;;;;;19.43;63.10;100445.72;5015753;28;20504;-48
2021/08/02 07:11:10;;;;;;;2.90;2.70;;;;;;;19.42;63.05;100451.16;5017681;28;20490;-48
2021/08/02 07:13:35;;;;;;;2.58;2.38;;;;;;;19.39;63.41;100462.00;5018851;28;20022;-48
2021/08/02 07:16:01;;;;;;;3.40;2.50;;;;;;;19.40;63.60;100461.06;5018018;28;20052;-48
2021/08/02 07:18:33;;;;;;;2.10;2.00;;;;;;;19.39;62.97;100459.31;5012634;28;20026;-48
2021/08/02 07:20:59;;;;;;;2.63;2.42;;;;;;;19.40;63.16;100456.56;5015259;28;20050;-49
2021/08/02 07:23:25;;;;;;;2.58;2.38;;;;;;;19.38;63.19;100447.78;5017525;28;20523;-47
2021/08/02 07:25:50;;;;;;;3.13;2.53;;;;;;;19.38;63.37;100453.13;5014577;28;20501;-49
2021/08/02 07:28:15;;;;;;;2.35;2.20;;;;;;;19.39;63.18;100459.31;5012469;28;20393;-48
2021/08/02 07:30:40;;;;;;;5.22;2.70;;;;;;;19.34;63.20;100455.06;5020774;28;20029;-48
2021/08/02 07:33:06;;;;;;;2.95;2.65;;;;;;;19.33;63.16;100452.47;5019036;28;20025;-48
2021/08/02 07:35:31;;;;;;;2.63;2.42;;;;;;;19.32;63.04;100448.94;5016214;28;20045;-47
2021/08/02 07:37:56;;;;;;;2.45;2.25;;;;;;;19.38;63.33;100466.50;5016163;28;20030;-49
2021/08/02 07:40:22;;;;;;;2.28;1.95;;;;;;;19.33;63.22;100460.50;5017609;28;20075;-48
2021/08/02 07:42:47;;;;;;;2.72;2.50;;;;;;;19.34;63.34;100463.09;5014604;28;20560;-49
2021/08/02 07:45:13;;;;;;;2.38;2.17;;;;;;;19.35;63.00;100470.16;5014865;28;20399;-43
2021/08/02 07:47:38;;;;;;;2.47;2.28;;;;;;;19.34;62.95;100463.09;5016750;28;20639;-47
2021/08/02 07:50:05;;;;;;;2.97;2.78;;;;;;;19.33;63.09;100461.38;5022355;28;20021;-45
2021/08/02 07:52:31;;;;;;;3.03;2.70;;;;;;;19.33;63.07;100466.72;5018870;28;20145;-46
2021/08/02 07:54:58;;;;;;;3.03;2.72;;;;;;;19.34;63.15;100472.94;5019152;28;20053;-46
2021/08/02 07:57:23;;;;;;;2.60;2.40;;;;;;;19.34;63.22;100470.25;5018859;28;20499;-45
2021/08/02 07:59:48;;;;;;;2.50;2.30;;;;;;;19.32;63.03;100456.97;5010789;28;20492;-46
2021/08/02 08:02:14;;;;;;;2.50;2.30;;;;;;;19.32;63.29;100467.66;5014387;28;20022;-46
2021/08/02 08:04:39;;;;;;;2.33;2.13;;;;;;;19.33;63.30;100471.19;5013985;28;20033;-45
2021/08/02 08:07:14;;;;;;;3.03;2.38;;;;;;;19.32;63.34;100464.13;5018974;28;20413;-45
2021/08/02 08:09:39;;;;;;;2.42;2.22;;;;;;;19.31;63.16;100457.88;5020924;28;20032;-47
2021/08/02 08:12:04;;;;;;;2.45;2.25;;;;;;;19.32;63.32;100456.97;5021109;28;20033;-46
2021/08/02 08:14:30;;;;;;;2.78;2.58;;;;;;;19.32;63.29;100464.13;5021614;28;20025;-43
2021/08/02 08:16:55;;;;;;;2.53;2.35;;;;;;;19.30;63.50;100472.22;5023057;28;20076;-43
2021/08/02 08:19:20;;;;;;;2.70;2.50;;;;;;;19.29;63.44;100464.25;5018828;28;20033;-44
2021/08/02 08:21:45;;;;;;;2.80;2.60;;;;;;;19.29;63.31;100458.91;5023561;28;20539;-43
2021/08/02 08:24:11;;;;;;;2.63;2.40;;;;;;;19.28;63.22;100466.09;5025566;28;20032;-44
2021/08/02 08:26:36;;;;;;;2.67;2.40;;;;;;;19.29;63.00;100464.25;5021448;28;20075;-43
2021/08/02 08:29:03;;;;;;;2.53;2.30;;;;;;;19.28;63.14;100457.19;5021729;28;20014;-45
2021/08/02 08:31:28;;;;;;;2.95;2.63;;;;;;;19.29;62.82;100465.13;5017352;28;20393;-44
2021/08/02 08:33:55;;;;;;;2.70;2.50;;;;;;;19.28;62.99;100466.09;5023391;28;20014;-44
2021/08/02 08:36:20;;;;;;;2.83;2.38;;;;;;;19.25;62.94;100466.22;5020061;28;20022;-43
2021/08/02 08:38:46;;;;;;;2.97;2.67;;;;;;;19.27;62.65;100474.19;5023438;28;20029;-43
2021/08/02 08:41:13;;;;;;;2.60;2.40;;;;;;;19.28;62.69;100474.09;5023834;28;20068;-46
2021/08/02 08:43:41;;;;;;;2.92;2.63;;;;;;;19.27;62.47;100472.34;5020038;28;20470;-45
2021/08/02 08:46:06;;;;;;;2.60;2.40;;;;;;;19.27;62.67;100469.69;5019997;28;20026;-46
2021/08/02 08:48:32;;;;;;;2.20;2.05;;;;;;;19.28;62.48;100471.44;5023512;28;20036;-43
2021/08/02 08:51:01;;;;;;;2.35;2.15;;;;;;;19.28;62.50;100471.44;5018357;28;20029;-44
2021/08/02 08:53:27;;;;;;;2.60;2.40;;;;;;;19.27;62.46;100477.69;5014366;28;20119;-44
2021/08/02 08:55:52;;;;;;;2.55;2.35;;;;;;;19.25;62.12;100471.59;5019783;28;20084;-47
2021/08/02 08:58:17;;;;;;;2.10;2.00;;;;;;;19.28;62.43;100470.56;5017567;28;20025;-44
2021/08/02 09:00:43;;;;;;;2.97;2.20;;;;;;;19.26;62.48;100464.41;5020980;28;20460;-44
2021/08/02 09:03:13;;;;;;;2.70;2.50;;;;;;;19.25;62.34;100455.53;5023270;28;20636;-46
2021/08/02 09:05:39;;;;;;;2.28;2.08;;;;;;;19.26;62.39;100467.97;5019310;28;20049;-44
2021/08/02 09:08:06;;;;;;;2.83;2.10;;;;;;;19.27;62.36;100469.69;5022390;28;20021;-43
2021/08/02 09:10:34;;;;;;;2.33;2.17;;;;;;;19.25;62.08;100463.56;5016166;28;20442;-44
2021/08/02 09:13:01;;;;;;;2.22;2.08;;;;;;;19.26;61.78;100467.97;5019487;28;20390;-43
2021/08/02 09:15:31;;;;;;;2.83;2.63;;;;;;;19.25;61.67;100465.34;5019919;28;20370;-43
2021/08/02 09:17:57;;;;;;;2.60;2.40;;;;;;;19.26;61.15;100465.28;5020304;28;20018;-43
2021/08/02 09:20:23;;;;;;;3.50;2.40;;;;;;;19.26;61.72;100469.75;5020947;28;20033;-45
2021/08/02 09:22:49;;;;;;;2.40;2.20;;;;;;;19.22;61.63;100461.91;5019147;28;20386;-43
2021/08/02 09:25:39;;;;;;;2.58;2.38;;;;;;;19.27;61.61;100471.50;5018895;28;20022;-43
2021/08/02 09:28:16;;;;;;;2.20;2.00;;;;;;;19.26;61.71;100475.97;5018052;28;20025;-44
2021/08/02 09:30:54;;;;;;;2.40;2.20;;;;;;;19.26;61.86;100473.31;5021416;28;20033;-43
2021/08/02 09:33:20;;;;;;;2.72;2.53;;;;;;;19.27;61.93;100472.34;5014826;28;20092;-45
2021/08/02 09:35:49;;;;;;;3.28;2.25;;;;;;;19.26;61.76;100472.44;5016897;28;20144;-43
2021/08/02 09:38:16;;;;;;;4.13;2.40;;;;;;;19.26;61.71;100473.31;5016884;28;20030;-46
2021/08/02 09:40:46;;;;;;;3.45;2.15;;;;;;;19.27;61.77;100474.19;5021200;28;20465;-44
2021/08/02 09:43:22;;;;;;;2.08;1.98;;;;;;;19.26;61.54;100475.97;5015062;28;20026;-44
2021/08/02 09:45:52;;;;;;;2.17;2.08;;;;;;;19.25;61.59;100478.72;5015771;28;20040;-44
2021/08/02 09:48:19;;;;;;;2.33;2.13;;;;;;;19.26;61.16;100475.97;5013554;28;20029;-50
2021/08/02 09:50:47;;;;;;;2.97;2.33;;;;;;;19.24;61.33;100472.50;5019982;28;20025;-46
2021/08/02 09:53:18;;;;;;;2.08;1.98;;;;;;;19.21;61.86;100470.00;5018695;28;20017;-49
2021/08/02 09:55:47;;;;;;;2.45;2.25;;;;;;;19.26;61.44;100478.66;5010163;28;20482;-44
2021/08/02 09:58:18;;;;;;;2.50;2.30;;;;;;;19.18;61.30;100462.13;5015802;28;20026;-44
2021/08/02 10:00:43;;;;;;;2.58;2.35;;;;;;;19.28;61.30;100473.22;5013005;28;20033;-48
2021/08/02 10:03:09;;;;;;;2.35;2.15;;;;;;;19.26;61.81;100481.31;5019240;28;20026;-43
2021/08/02 10:05:36;;;;;;;2.85;2.45;;;;;;;19.28;61.60;100468.75;5014780;28;20064;-43
2021/08/02 10:08:03;;;;;;;2.58;2.38;;;;;;;19.29;61.76;100478.50;5019387;28;20153;-46
2021/08/02 10:10:28;;;;;;;2.40;2.20;;;;;;;19.27;61.77;100483.03;5021514;28;20082;-44
2021/08/02 10:12:53;;;;;;;2.47;2.25;;;;;;;19.28;61.61;100476.78;5016403;28;20101;-49
2021/08/02 10:15:29;;;;;;;2.60;2.40;;;;;;;19.29;61.70;100481.19;5021130;28;20060;-44
2021/08/02 10:17:59;;;;;;;3.38;2.42;;;;;;;19.30;61.38;100472.22;5018410;28;20068;-43
2021/08/02 10:20:26;;;;;;;2.65;2.20;;;;;;;19.29;61.96;100466.94;5014025;28;20477;-46
2021/08/02 10:22:53;;;;;;;2.33;2.13;;;;;;;19.31;61.92;100473.09;5021992;28;20033;-44
2021/08/02 10:25:30;;;;;;;2.22;2.03;;;;;;;19.30;61.73;100469.53;5018936;28;20025;-45
2021/08/02 10:28:07;;;;;;;2.72;2.53;;;;;;;19.31;61.62;100470.41;5016656;28;20037;-43
2021/08/02 10:30:32;;;;;;;2.58;2.38;;;;;;;19.31;61.84;100471.25;5023903;28;20026;-43
2021/08/02 10:32:57;;;;;;;2.25;2.05;;;;;;;19.32;61.37;100469.47;5019948;28;20018;-45
2021/08/02 10:35:36;;;;;;;2.38;2.00;;;;;;;19.31;61.57;100463.25;5017593;28;20025;-44
2021/08/02 10:38:06;;;;;;;2.65;2.45;;;;;;;19.31;61.54;100468.59;5021283;28;20469;-44
2021/08/02 10:40:46;;;;;;;2.78;2.17;;;;;;;19.28;61.73;100458.06;5019433;28;20041;-46
2021/08/02 10:43:30;;;;;;;2.72;2.42;;;;;;;19.32;61.58;100474.81;5017006;28;20102;-44
2021/08/02 10:45:57;;;;;;;2.67;2.47;;;;;;;19.29;61.68;100470.47;5020759;28;20025;-43
2021/08/02 10:48:29;;;;;;;2.47;2.28;;;;;;;19.31;62.13;100470.41;5023382;28;20429;-44
2021/08/02 10:50:56;;;;;;;2.55;2.35;;;;;;;19.32;61.85;100459.66;5016453;28;20021;-44
2021/08/02 10:53:25;;;;;;;2.20;1.85;;;;;;;19.31;61.58;100457.88;5025520;28;20033;-44
2021/08/02 10:55:52;;;;;;;2.60;2.40;;;;;;;19.31;61.62;100457.88;5019647;28;20488;-43
2021/08/02 10:58:37;;;;;;;2.40;2.17;;;;;;;19.30;61.79;100461.50;5016820;28;20049;-47
2021/08/02 11:01:06;;;;;;;2.58;2.38;;;;;;;19.30;62.13;100456.16;5009339;28;20096;-43
2021/08/02 11:03:36;;;;;;;2.40;2.20;;;;;;;19.31;61.57;100457.03;5017057;28;20025;-44
2021/08/02 11:06:12;;;;;;;2.20;2.10;;;;;;;19.33;61.43;100456.03;5019945;28;20021;-44
2021/08/02 11:08:49;;;;;;;2.50;2.30;;;;;;;19.32;61.77;100448.94;5017532;28;20018;-43
2021/08/02 11:11:37;;;;;;;2.10;2.00;;;;;;;19.33;61.52;100455.16;5015043;28;20052;-47
2021/08/02 11:14:15;;;;;;;2.63;2.42;;;;;;;19.31;61.78;100452.53;5016076;28;20159;-45
2021/08/02 11:16:45;;;;;;;2.63;2.42;;;;;;;19.32;61.78;100462.31;5014897;28;20022;-43
2021/08/02 11:19:15;;;;;;;2.42;2.22;;;;;;;19.35;61.60;100464.81;5021850;28;20038;-43
2021/08/02 11:21:40;;;;;;;2.15;2.05;;;;;;;19.32;61.17;100459.66;5019936;28;20029;-45
2021/08/02 11:24:09;;;;;;;1.92;1.83;;;;;;;19.34;60.92;100464.91;5013391;28;20018;-43
2021/08/02 11:26:53;;;;;;;3.15;2.35;;;;;;;19.36;60.25;100465.69;5003582;28;20413;-43